Terminal Aerodrome Forecast
Issued by NWS

Home | Current Version | Previous Version | Text Only | Print | Product List | Glossary On
Versions: 1 2 3 4 5 6 7 8 9 10 11 12 13 14 15 16 17 18 19 20 21 22 23 24 25 26 27 28 29 30 31 32 33 34 35 36 37 38 39 40 41 42 43 44 45 46 47
000
FTUS42 KGSP 230500
TAFHKY
TAF
KHKY 230523Z 2306/2406 00000KT P6SM SCT060
     FM230700 00000KT 5SM BR SCT070
     FM230800 00000KT 3SM BR BKN050
      TEMPO 2309/2312 00000KT 2SM BR BKN015
     FM231300 24004KT P6SM BKN060 PROB30 2318/2324 4SM TSRA
      BKN040CB=

USA.gov is the U.S. government's official web portal to all federal, state and local government web resources and services.